createdAt,value
2019-04-16T00:00:17.310Z,91.20
2019-04-16T00:02:51.252Z,91.40
2019-04-16T00:05:22.125Z,91.60
2019-04-16T00:07:52.366Z,91.70
2019-04-16T00:10:28.491Z,91.80
2019-04-16T00:13:14.745Z,91.90
2019-04-16T00:15:43.212Z,92.10
2019-04-16T00:18:12.241Z,92.10
2019-04-16T00:20:47.957Z,92.10
2019-04-16T00:23:26.960Z,92.40
2019-04-16T00:25:56.199Z,92.50
2019-04-16T00:28:25.374Z,92.70
2019-04-16T00:30:53.832Z,92.80
2019-04-16T00:33:22.373Z,93.00
2019-04-16T00:35:50.822Z,93.10
2019-04-16T00:38:22.424Z,93.20
2019-04-16T00:40:49.472Z,93.40
2019-04-16T00:43:17.921Z,93.50
2019-04-16T00:45:46.422Z,93.70
2019-04-16T00:48:14.947Z,93.80
2019-04-16T00:50:43.493Z,93.90
2019-04-16T00:53:12.031Z,93.60
2019-04-16T00:55:42.359Z,93.40
2019-04-16T00:58:10.663Z,93.40
2019-04-16T01:00:39.219Z,93.10
2019-04-16T01:03:07.742Z,93.30
2019-04-16T01:05:36.195Z,92.80
2019-04-16T01:08:04.773Z,92.90
2019-04-16T01:10:33.217Z,92.90
2019-04-16T01:13:01.684Z,92.80
2019-04-16T01:15:32.089Z,92.70
2019-04-16T01:18:00.395Z,92.50
2019-04-16T01:20:28.896Z,92.20
2019-04-16T01:22:57.351Z,92.00
2019-04-16T01:25:25.801Z,91.80
2019-04-16T01:27:59.830Z,91.60
2019-04-16T01:30:43.857Z,91.30
2019-04-16T01:33:19.758Z,91.00
2019-04-16T01:35:51.520Z,90.80
2019-04-16T01:38:21.790Z,90.60
2019-04-16T01:41:04.037Z,90.40
2019-04-16T01:43:32.611Z,90.20
2019-04-16T01:46:02.352Z,90.10
2019-04-16T01:48:31.251Z,90.00
2019-04-16T01:50:59.716Z,90.00
2019-04-16T01:53:28.246Z,90.00
2019-04-16T01:55:57.656Z,89.90
2019-04-16T01:58:26.302Z,89.70
2019-04-16T02:00:54.835Z,89.80
2019-04-16T02:03:23.382Z,89.90
2019-04-16T02:05:54.624Z,89.70
2019-04-16T02:08:22.087Z,89.70
2019-04-16T02:10:50.550Z,89.90
2019-04-16T02:13:19.026Z,89.80
2019-04-16T02:15:47.548Z,89.80
2019-04-16T02:18:16.018Z,89.90
2019-04-16T02:20:44.510Z,90.00
2019-04-16T02:23:13.530Z,89.90
2019-04-16T02:25:43.132Z,90.00
2019-04-16T02:28:11.627Z,89.90
2019-04-16T02:30:40.094Z,90.00
2019-04-16T02:33:08.643Z,90.10
2019-04-16T02:35:37.151Z,90.10
2019-04-16T02:38:11.107Z,90.10
2019-04-16T02:40:36.181Z,90.10
2019-04-16T02:43:06.983Z,90.20
2019-04-16T02:45:34.876Z,90.20
2019-04-16T02:48:03.394Z,90.30
2019-04-16T02:50:42.427Z,90.40
2019-04-16T02:53:29.032Z,90.40
2019-04-16T02:56:19.024Z,90.40
2019-04-16T02:58:53.422Z,90.50
2019-04-16T03:01:41.788Z,90.60
2019-04-16T03:04:12.042Z,90.60
2019-04-16T03:06:40.579Z,90.80
2019-04-16T03:09:09.950Z,90.90
2019-04-16T03:11:38.796Z,90.90
2019-04-16T03:14:07.318Z,91.10
2019-04-16T03:16:38.628Z,91.10
2019-04-16T03:19:11.785Z,91.20
2019-04-16T03:21:40.620Z,91.30
2019-04-16T03:24:09.977Z,91.40
2019-04-16T03:26:38.774Z,91.50
2019-04-16T03:29:07.244Z,91.60
2019-04-16T03:31:35.788Z,91.80
2019-04-16T03:34:04.798Z,91.90
2019-04-16T03:36:33.602Z,91.90
2019-04-16T03:39:02.131Z,92.00
2019-04-16T03:41:30.590Z,92.10
2019-04-16T03:44:03.658Z,92.20
2019-04-16T03:46:29.307Z,92.40
2019-04-16T03:48:57.755Z,92.40
2019-04-16T03:51:26.214Z,92.50
2019-04-16T03:53:54.716Z,92.50
2019-04-16T03:56:23.234Z,92.60
2019-04-16T03:58:51.697Z,92.70
2019-04-16T04:01:20.222Z,92.70
2019-04-16T04:03:48.691Z,92.80
2019-04-16T04:06:17.174Z,93.00
2019-04-16T04:11:27.616Z,93.00
2019-04-16T04:13:56.067Z,93.00
2019-04-16T04:16:24.527Z,93.10
2019-04-16T04:18:53.061Z,93.10
2019-04-16T04:21:22.601Z,93.20
2019-04-16T04:23:51.391Z,93.30
2019-04-16T04:26:19.859Z,93.80
2019-04-16T04:28:48.555Z,93.50
2019-04-16T04:31:18.579Z,93.40
2019-04-16T04:33:47.085Z,93.40
2019-04-16T04:36:18.751Z,93.50
2019-04-16T04:38:45.883Z,93.40
2019-04-16T04:41:14.410Z,93.40
2019-04-16T04:43:43.234Z,93.30
2019-04-16T04:46:14.536Z,93.20
2019-04-16T04:48:42.017Z,93.10
2019-04-16T04:51:10.519Z,93.10
2019-04-16T04:53:38.969Z,93.00
2019-04-16T04:56:07.434Z,92.90
2019-04-16T04:58:35.882Z,92.90
2019-04-16T05:01:04.801Z,92.80
2019-04-16T05:03:34.944Z,92.70
2019-04-16T05:06:10.695Z,92.60
2019-04-16T05:08:44.201Z,92.60
2019-04-16T05:11:15.851Z,92.50
2019-04-16T05:13:42.851Z,92.30
2019-04-16T05:16:11.527Z,92.20
2019-04-16T05:18:41.946Z,92.20
2019-04-16T05:21:10.314Z,92.30
2019-04-16T05:23:38.847Z,92.00
2019-04-16T05:26:09.804Z,91.90
2019-04-16T05:28:37.511Z,91.80
2019-04-16T05:31:06.152Z,91.70
2019-04-16T05:33:37.522Z,91.60
2019-04-16T05:36:04.928Z,91.50
2019-04-16T05:38:33.483Z,91.40
2019-04-16T05:41:12.570Z,91.40
2019-04-16T05:43:32.195Z,91.10
2019-04-16T05:46:00.740Z,91.00
2019-04-16T05:48:29.200Z,91.00
2019-04-16T05:50:59.962Z,90.80
2019-04-16T05:53:27.931Z,90.60
2019-04-16T05:55:58.045Z,90.40
2019-04-16T05:58:27.799Z,90.40
2019-04-16T06:01:04.165Z,90.20
2019-04-16T06:03:32.631Z,90.00
2019-04-16T06:06:01.153Z,89.50
2019-04-16T06:08:29.607Z,88.90
2019-04-16T06:10:58.069Z,88.60
2019-04-16T06:13:31.051Z,88.20
2019-04-16T06:16:16.211Z,87.70
2019-04-16T06:18:55.317Z,86.80
2019-04-16T06:21:41.627Z,86.70
2019-04-16T06:24:14.420Z,86.00
2019-04-16T06:26:59.827Z,84.60
2019-04-16T06:29:35.821Z,84.30
2019-04-16T06:32:12.235Z,83.80
2019-04-16T06:34:42.569Z,83.20
2019-04-16T06:37:21.473Z,82.20
2019-04-16T06:40:00.606Z,79.60
2019-04-16T06:42:30.380Z,78.00
2019-04-16T06:45:01.669Z,77.40
2019-04-16T06:47:32.496Z,77.00
2019-04-16T06:50:05.254Z,76.00
2019-04-16T06:52:46.160Z,74.30
2019-04-16T06:55:16.184Z,73.10
2019-04-16T06:57:48.826Z,72.50
2019-04-16T07:00:21.514Z,71.40
2019-04-16T07:03:06.451Z,70.60
2019-04-16T07:05:48.638Z,69.60
2019-04-16T07:08:21.860Z,67.90
2019-04-16T07:10:57.816Z,67.90
2019-04-16T07:13:26.306Z,67.80
2019-04-16T07:15:56.900Z,67.10
2019-04-16T07:18:24.933Z,66.00
2019-04-16T07:20:53.482Z,62.50
2019-04-16T07:23:24.778Z,61.30
2019-04-16T07:25:52.209Z,60.90
2019-04-16T07:28:26.639Z,60.10
2019-04-16T07:31:20.344Z,60.50
2019-04-16T07:33:48.254Z,60.20
2019-04-16T07:36:28.016Z,58.80
2019-04-16T07:38:58.478Z,58.30
2019-04-16T07:41:34.449Z,58.00
2019-04-16T07:44:10.251Z,58.30
2019-04-16T07:46:36.529Z,57.90
2019-04-16T07:49:06.611Z,57.80
2019-04-16T07:51:36.804Z,57.60
2019-04-16T07:54:18.786Z,56.90
2019-04-16T07:56:47.843Z,55.50
2019-04-16T07:59:16.324Z,54.60
2019-04-16T08:01:47.881Z,54.40
2019-04-16T08:04:23.213Z,54.50
2019-04-16T08:06:47.160Z,54.50
2019-04-16T08:09:15.321Z,54.00
2019-04-16T08:11:43.782Z,53.00
2019-04-16T08:14:14.631Z,53.20
2019-04-16T08:16:47.472Z,53.10
2019-04-16T08:19:15.326Z,53.10
2019-04-16T08:21:44.299Z,53.60
2019-04-16T08:24:17.512Z,53.30
2019-04-16T08:26:45.974Z,52.80
2019-04-16T08:29:14.428Z,52.70
2019-04-16T08:31:44.897Z,52.10
2019-04-16T08:34:13.443Z,51.70
2019-04-16T08:36:41.897Z,52.50
2019-04-16T08:39:11.994Z,52.00
2019-04-16T08:41:40.450Z,51.80
2019-04-16T08:44:10.348Z,51.30
2019-04-16T08:46:40.156Z,50.10
2019-04-16T08:49:09.481Z,50.40
2019-04-16T08:51:38.020Z,50.40
2019-04-16T08:54:06.507Z,50.40
2019-04-16T08:56:34.955Z,49.00
2019-04-16T08:59:06.798Z,49.20
2019-04-16T09:01:35.411Z,48.50
2019-04-16T09:04:04.406Z,48.60
2019-04-16T09:06:33.027Z,48.30
2019-04-16T09:09:12.443Z,48.70
2019-04-16T09:11:36.097Z,48.90
2019-04-16T09:14:06.195Z,48.60
2019-04-16T09:16:39.049Z,48.90
2019-04-16T09:19:12.157Z,49.50
2019-04-16T09:21:43.433Z,49.00
2019-04-16T09:24:19.960Z,48.90
2019-04-16T09:26:55.641Z,47.80
2019-04-16T09:29:40.698Z,47.90
2019-04-16T09:32:28.197Z,48.40
2019-04-16T09:35:08.836Z,47.90
2019-04-16T09:37:42.514Z,48.20
2019-04-16T09:40:17.736Z,47.70
2019-04-16T09:42:45.635Z,47.30
2019-04-16T09:45:15.720Z,47.40
2019-04-16T09:47:44.196Z,47.00
2019-04-16T09:50:12.717Z,47.50
2019-04-16T09:52:41.271Z,48.00
2019-04-16T09:55:09.899Z,48.00
2019-04-16T09:57:40.273Z,48.10
2019-04-16T10:00:11.742Z,47.50
2019-04-16T10:02:40.314Z,47.20
2019-04-16T10:05:09.854Z,46.80
2019-04-16T10:07:40.269Z,46.50
2019-04-16T10:10:09.415Z,45.90
2019-04-16T10:12:37.914Z,46.40
2019-04-16T10:15:08.447Z,46.00
2019-04-16T10:17:36.983Z,45.60
2019-04-16T10:20:07.298Z,44.80
2019-04-16T10:22:35.864Z,45.20
2019-04-16T10:25:07.568Z,44.80
2019-04-16T10:27:37.748Z,45.20
2019-04-16T10:30:09.195Z,44.40
2019-04-16T10:32:37.707Z,43.80
2019-04-16T10:35:06.163Z,43.70
2019-04-16T10:37:34.699Z,43.50
2019-04-16T10:40:07.849Z,43.50
2019-04-16T10:42:40.576Z,43.30
2019-04-16T10:45:10.987Z,43.60
2019-04-16T10:47:50.114Z,43.70
2019-04-16T10:50:26.120Z,42.60
2019-04-16T10:52:56.756Z,43.10
2019-04-16T10:55:43.378Z,42.60
2019-04-16T10:58:19.479Z,42.20
2019-04-16T11:00:58.740Z,41.90
2019-04-16T11:03:33.985Z,42.70
2019-04-16T11:06:07.115Z,42.60
2019-04-16T11:08:35.662Z,43.50
2019-04-16T11:11:04.641Z,43.40
2019-04-16T11:13:37.272Z,43.80
2019-04-16T11:16:10.578Z,44.00
2019-04-16T11:18:39.299Z,44.50
2019-04-16T11:21:08.257Z,44.20
2019-04-16T11:23:36.725Z,44.00
2019-04-16T11:26:05.245Z,44.10
2019-04-16T11:28:33.830Z,43.60
2019-04-16T11:31:06.758Z,44.10
2019-04-16T11:33:35.293Z,43.10
2019-04-16T11:36:17.440Z,43.20
2019-04-16T11:38:34.050Z,43.20
2019-04-16T11:41:02.624Z,43.30
2019-04-16T11:43:31.112Z,42.50
2019-04-16T11:45:59.653Z,42.30
2019-04-16T11:48:28.179Z,41.30
2019-04-16T11:50:56.818Z,40.00
2019-04-16T11:53:25.274Z,39.10
2019-04-16T11:55:53.823Z,38.30
2019-04-16T11:58:29.907Z,38.20
2019-04-16T12:01:02.769Z,38.50
2019-04-16T12:03:47.960Z,37.30
2019-04-16T12:06:28.682Z,37.20
2019-04-16T12:09:14.927Z,36.40
2019-04-16T12:11:53.928Z,35.40
2019-04-16T12:14:42.076Z,34.80
2019-04-16T12:17:24.379Z,34.20
2019-04-16T12:20:10.870Z,33.30
2019-04-16T12:22:46.980Z,32.50
2019-04-16T12:25:22.922Z,31.00
2019-04-16T12:28:06.513Z,31.10
2019-04-16T12:30:36.578Z,31.10
2019-04-16T12:33:15.432Z,31.20
2019-04-16T12:35:57.569Z,30.90
2019-04-16T12:38:39.608Z,30.50
2019-04-16T12:41:09.787Z,30.30
2019-04-16T12:43:40.009Z,29.70
2019-04-16T12:46:26.679Z,30.00
2019-04-16T12:49:02.514Z,30.70
2019-04-16T12:51:32.682Z,31.70
2019-04-16T12:54:17.702Z,32.00
2019-04-16T12:56:47.899Z,31.90
2019-04-16T12:59:21.799Z,32.20
2019-04-16T13:01:49.921Z,31.90
2019-04-16T13:04:37.934Z,32.10
2019-04-16T13:07:17.431Z,32.10
2019-04-16T13:09:47.530Z,32.00
2019-04-16T13:12:26.813Z,31.90
2019-04-16T13:15:01.323Z,31.90
2019-04-16T13:17:37.992Z,32.40
2019-04-16T13:20:08.653Z,33.30
2019-04-16T13:22:41.543Z,34.10
2019-04-16T13:25:17.584Z,34.30
2019-04-16T13:27:47.773Z,34.60
2019-04-16T13:30:17.213Z,35.00
2019-04-16T13:32:45.758Z,36.10
2019-04-16T13:35:14.940Z,37.10
2019-04-16T13:37:43.516Z,37.90
2019-04-16T13:40:16.470Z,38.80
2019-04-16T13:42:45.004Z,39.90
2019-04-16T13:45:29.873Z,41.20
2019-04-16T13:48:14.455Z,41.90
2019-04-16T13:50:40.845Z,42.60
2019-04-16T13:53:15.225Z,43.00
2019-04-16T13:55:49.332Z,43.60
2019-04-16T13:58:20.202Z,43.90
2019-04-16T14:00:50.381Z,44.70
2019-04-16T14:03:20.787Z,45.90
2019-04-16T14:05:50.818Z,46.40
2019-04-16T14:08:19.355Z,47.00
2019-04-16T14:10:47.851Z,47.60
2019-04-16T14:13:16.330Z,48.20
2019-04-16T14:15:45.117Z,48.80
2019-04-16T14:18:13.667Z,49.80
2019-04-16T14:20:42.141Z,51.00
2019-04-16T14:23:10.691Z,51.70
2019-04-16T14:25:39.152Z,52.10
2019-04-16T14:28:07.635Z,52.90
2019-04-16T14:30:39.571Z,54.40
2019-04-16T14:33:07.983Z,55.40
2019-04-16T14:35:40.066Z,56.50
2019-04-16T14:38:06.735Z,57.20
2019-04-16T14:40:35.265Z,58.30
2019-04-16T14:43:04.014Z,62.30
2019-04-16T14:45:49.973Z,65.40
2019-04-16T14:48:07.626Z,69.50
2019-04-16T14:50:34.997Z,73.80
2019-04-16T14:53:03.460Z,78.30
2019-04-16T14:55:59.229Z,84.60
2019-04-16T14:58:17.567Z,90.70
2019-04-16T15:00:53.431Z,92.90
2019-04-16T15:03:27.315Z,94.90
2019-04-16T15:06:06.422Z,95.70
2019-04-16T15:08:36.524Z,97.40
2019-04-16T15:11:22.995Z,98.60
2019-04-16T15:13:53.163Z,99.20
2019-04-16T15:16:39.503Z,99.90
2019-04-16T15:19:15.795Z,99.90
2019-04-16T15:22:01.989Z,99.90
2019-04-16T15:24:37.614Z,99.90
2019-04-16T15:27:19.532Z,99.90
2019-04-16T15:30:05.198Z,99.90
2019-04-16T15:32:40.977Z,99.90
2019-04-16T15:35:14.107Z,99.90
2019-04-16T15:37:45.182Z,99.90
2019-04-16T15:40:17.905Z,99.90
2019-04-16T15:42:50.893Z,99.90
2019-04-16T15:45:25.625Z,99.90
2019-04-16T15:48:04.437Z,99.90
2019-04-16T15:50:50.917Z,99.90
2019-04-16T15:53:21.085Z,99.90
2019-04-16T15:55:54.088Z,99.90
2019-04-16T15:58:24.305Z,99.90
2019-04-16T16:01:09.535Z,99.90
2019-04-16T16:03:55.824Z,99.90
2019-04-16T16:06:25.995Z,99.90
2019-04-16T16:08:58.972Z,99.90
2019-04-16T16:11:47.996Z,99.90
2019-04-16T16:14:15.820Z,99.90
2019-04-16T16:16:44.275Z,99.90
2019-04-16T16:19:12.753Z,99.90
2019-04-16T16:21:41.338Z,99.90
2019-04-16T16:24:09.871Z,99.90
2019-04-16T16:26:38.415Z,99.90
2019-04-16T16:29:06.919Z,99.90
2019-04-16T16:31:35.796Z,99.90
2019-04-16T16:34:08.293Z,99.90
2019-04-16T16:36:36.552Z,99.90
2019-04-16T16:39:07.307Z,99.90
2019-04-16T16:41:35.864Z,99.90
2019-04-16T16:44:04.565Z,99.90
2019-04-16T16:46:56.127Z,99.90
2019-04-16T16:49:13.715Z,99.90
2019-04-16T16:51:43.971Z,99.90
2019-04-16T16:54:16.901Z,99.90
2019-04-16T16:56:47.212Z,99.90
2019-04-16T16:59:33.770Z,99.90
2019-04-16T17:02:08.827Z,99.90
2019-04-16T17:04:35.800Z,99.90
2019-04-16T17:07:05.056Z,99.90
2019-04-16T17:09:34.462Z,99.90
2019-04-16T17:12:03.408Z,99.90
2019-04-16T17:14:36.201Z,99.90
2019-04-16T17:17:12.775Z,99.90
2019-04-16T17:19:32.606Z,99.90
2019-04-16T17:22:01.139Z,99.90
2019-04-16T17:24:29.688Z,99.90
2019-04-16T17:26:58.248Z,99.90
2019-04-16T17:29:26.925Z,99.90
2019-04-16T17:31:55.700Z,99.90
2019-04-16T17:34:24.394Z,99.90
2019-04-16T17:36:52.941Z,99.90
2019-04-16T17:39:42.568Z,99.90
2019-04-16T17:42:12.930Z,99.90
2019-04-16T17:44:59.338Z,99.90
2019-04-16T17:47:33.233Z,99.90
2019-04-16T17:50:04.736Z,99.90
2019-04-16T17:52:40.855Z,99.90
2019-04-16T17:55:22.865Z,99.90
2019-04-16T17:57:53.048Z,99.90
2019-04-16T18:00:39.325Z,99.90
2019-04-16T18:03:21.463Z,99.90
2019-04-16T18:05:51.643Z,99.90
2019-04-16T18:08:33.649Z,99.90
2019-04-16T18:11:06.439Z,99.90
2019-04-16T18:13:38.719Z,99.90
2019-04-16T18:16:25.238Z,99.90
2019-04-16T18:18:55.427Z,99.90
2019-04-16T18:21:43.935Z,99.90
2019-04-16T18:24:26.050Z,99.90
2019-04-16T18:27:12.774Z,99.90
2019-04-16T18:29:48.595Z,99.90
2019-04-16T18:32:31.059Z,99.90
2019-04-16T18:35:18.355Z,99.90
2019-04-16T18:37:51.163Z,99.90
2019-04-16T18:40:21.269Z,99.90
2019-04-16T18:43:03.442Z,99.90
2019-04-16T18:45:45.801Z,99.90
2019-04-16T18:48:24.984Z,99.90
2019-04-16T18:50:53.446Z,99.90
2019-04-16T18:53:22.788Z,99.90
2019-04-16T18:55:51.357Z,99.90
2019-04-16T18:58:19.895Z,99.90
2019-04-16T19:00:50.064Z,99.90
2019-04-16T19:03:18.528Z,99.90
2019-04-16T19:05:46.977Z,99.90
2019-04-16T19:08:15.548Z,99.90
2019-04-16T19:10:44.148Z,99.90
2019-04-16T19:13:12.761Z,99.90
2019-04-16T19:15:41.287Z,99.90
2019-04-16T19:18:18.935Z,99.90
2019-04-16T19:20:39.961Z,99.90
2019-04-16T19:23:08.404Z,99.90
2019-04-16T19:25:36.989Z,99.90
2019-04-16T19:28:06.899Z,99.90
2019-04-16T19:30:35.466Z,99.90
2019-04-16T19:33:03.999Z,99.90
2019-04-16T19:35:32.459Z,99.90
2019-04-16T19:38:02.323Z,99.90
2019-04-16T19:40:31.191Z,99.90
2019-04-16T19:43:02.639Z,99.90
2019-04-16T19:45:29.849Z,99.90
2019-04-16T19:48:00.811Z,99.90
2019-04-16T19:50:36.044Z,99.90
2019-04-16T19:53:00.225Z,99.90
2019-04-16T19:55:28.775Z,99.90
2019-04-16T19:57:57.997Z,99.90
2019-04-16T20:00:26.668Z,99.90
2019-04-16T20:02:55.177Z,99.90
2019-04-16T20:05:23.703Z,99.90
2019-04-16T20:07:52.170Z,99.90
2019-04-16T20:10:20.636Z,99.90
2019-04-16T20:12:49.117Z,99.90
2019-04-16T20:15:17.592Z,99.90
2019-04-16T20:17:46.121Z,99.90
2019-04-16T20:20:14.650Z,99.90
2019-04-16T20:22:43.108Z,99.90
2019-04-16T20:25:11.655Z,99.90
2019-04-16T20:27:40.787Z,99.90
2019-04-16T20:30:11.896Z,99.90
2019-04-16T20:32:42.330Z,99.90
2019-04-16T20:35:10.616Z,99.90
2019-04-16T20:37:39.082Z,99.90
2019-04-16T20:40:07.887Z,99.90
2019-04-16T20:42:36.345Z,99.90
2019-04-16T20:45:06.444Z,99.90
2019-04-16T20:47:38.752Z,99.90
2019-04-16T20:50:07.206Z,99.90
2019-04-16T20:52:35.826Z,99.90
2019-04-16T20:55:04.887Z,99.90
2019-04-16T20:57:33.341Z,99.90
2019-04-16T21:00:02.134Z,99.90
2019-04-16T21:02:32.818Z,99.90
2019-04-16T21:05:03.032Z,99.90
2019-04-16T21:07:31.499Z,99.90
2019-04-16T21:10:03.146Z,99.90
2019-04-16T21:12:30.174Z,99.90
2019-04-16T21:14:58.631Z,99.90
2019-04-16T21:17:27.088Z,99.90
2019-04-16T21:19:55.795Z,99.90
2019-04-16T21:22:24.904Z,99.90
2019-04-16T21:24:54.671Z,99.90
2019-04-16T21:27:23.204Z,99.90
2019-04-16T21:29:51.758Z,99.90
2019-04-16T21:32:24.634Z,99.90
2019-04-16T21:35:00.164Z,99.90
2019-04-16T21:37:29.467Z,99.90
2019-04-16T21:39:59.434Z,99.90
2019-04-16T21:42:27.890Z,99.90
2019-04-16T21:44:56.418Z,99.90
2019-04-16T21:47:24.913Z,99.90
2019-04-16T21:49:53.820Z,99.90
2019-04-16T21:52:23.092Z,99.90
2019-04-16T21:54:52.415Z,99.90
2019-04-16T21:57:21.014Z,99.90
2019-04-16T21:59:50.322Z,99.90
2019-04-16T22:02:27.050Z,99.90
2019-04-16T22:04:55.505Z,99.90
2019-04-16T22:07:25.383Z,99.90
2019-04-16T22:09:54.019Z,99.90
2019-04-16T22:12:22.715Z,99.90
2019-04-16T22:14:54.405Z,99.90
2019-04-16T22:17:21.357Z,99.90
2019-04-16T22:19:54.193Z,99.90
2019-04-16T22:22:20.000Z,99.90
2019-04-16T22:24:48.486Z,99.90
2019-04-16T22:27:16.985Z,99.90
2019-04-16T22:29:47.635Z,99.90
2019-04-16T22:32:15.662Z,99.90
2019-04-16T22:34:44.193Z,99.90
2019-04-16T22:37:12.743Z,99.90
2019-04-16T22:39:51.941Z,99.90
2019-04-16T22:42:29.695Z,99.90
2019-04-16T22:45:00.100Z,99.90
2019-04-16T22:47:30.227Z,99.90
2019-04-16T22:50:13.895Z,99.90
2019-04-16T22:52:28.962Z,99.90
2019-04-16T22:54:57.440Z,99.90
2019-04-16T22:57:25.993Z,99.90
2019-04-16T22:59:54.523Z,99.90
2019-04-16T23:02:24.629Z,99.90
2019-04-16T23:04:54.854Z,99.90
2019-04-16T23:07:23.305Z,99.90
2019-04-16T23:09:51.835Z,99.90
2019-04-16T23:12:20.304Z,99.90
2019-04-16T23:14:48.769Z,99.90
2019-04-16T23:17:18.191Z,99.90
2019-04-16T23:19:46.657Z,99.90
2019-04-16T23:22:15.425Z,99.90
2019-04-16T23:24:43.952Z,99.90
2019-04-16T23:27:12.416Z,99.90
2019-04-16T23:29:40.883Z,99.90
2019-04-16T23:32:09.380Z,99.90
2019-04-16T23:34:39.022Z,99.90
2019-04-16T23:37:08.063Z,99.90
2019-04-16T23:39:37.623Z,99.90
2019-04-16T23:42:06.346Z,99.90
2019-04-16T23:44:39.235Z,99.90
2019-04-16T23:47:27.484Z,99.90
2019-04-16T23:50:00.341Z,99.90
2019-04-16T23:52:39.406Z,99.90
2019-04-16T23:55:09.679Z,99.90
2019-04-16T23:57:48.479Z,99.90
